createdAt,value
2018-05-29T00:00:49.855Z,3.93
2018-05-29T00:03:22.569Z,3.57
2018-05-29T00:05:55.785Z,4.27
2018-05-29T00:08:29.195Z,4.20
2018-05-29T00:11:01.756Z,4.53
2018-05-29T00:13:35.134Z,3.40
2018-05-29T00:16:09.203Z,3.90
2018-05-29T00:18:42.837Z,4.27
2018-05-29T00:21:15.340Z,3.77
2018-05-29T00:23:47.743Z,4.83
2018-05-29T00:26:21.838Z,4.57
2018-05-29T00:28:54.546Z,3.73
2018-05-29T00:31:26.913Z,3.83
2018-05-29T00:34:00.357Z,3.30
2018-05-29T00:36:33.747Z,4.33
2018-05-29T00:39:06.239Z,3.67
2018-05-29T00:41:38.577Z,3.93
2018-05-29T00:44:11.384Z,4.20
2018-05-29T00:46:44.854Z,3.50
2018-05-29T00:49:18.196Z,4.07
2018-05-29T00:51:52.486Z,4.00
2018-05-29T00:54:26.496Z,3.73
2018-05-29T00:56:59.272Z,3.00
2018-05-29T00:59:31.798Z,4.13
2018-05-29T01:02:04.309Z,4.53
2018-05-29T01:04:37.048Z,3.70
2018-05-29T01:07:10.355Z,3.63
2018-05-29T01:09:42.706Z,3.93
2018-05-29T01:12:16.049Z,3.87
2018-05-29T01:14:49.508Z,4.00
2018-05-29T01:17:23.525Z,4.40
2018-05-29T01:19:56.223Z,3.30
2018-05-29T01:22:29.593Z,4.13
2018-05-29T01:25:02.122Z,3.97
2018-05-29T01:27:34.625Z,3.87
2018-05-29T01:30:08.635Z,4.60
2018-05-29T01:32:41.254Z,4.30
2018-05-29T01:35:13.727Z,3.90
2018-05-29T01:37:46.839Z,4.40
2018-05-29T01:40:19.637Z,4.83
2018-05-29T01:42:51.962Z,4.70
2018-05-29T01:45:24.527Z,4.37
2018-05-29T01:47:57.102Z,3.97
2018-05-29T01:50:31.217Z,4.07
2018-05-29T01:53:03.972Z,4.00
2018-05-29T01:55:36.584Z,4.07
2018-05-29T01:58:09.808Z,3.37
2018-05-29T02:00:42.222Z,4.50
2018-05-29T02:03:14.709Z,3.97
2018-05-29T02:05:48.237Z,4.77
2018-05-29T02:08:21.468Z,4.40
2018-05-29T02:10:53.854Z,4.87
2018-05-29T02:13:26.173Z,4.03
2018-05-29T02:15:58.686Z,3.83
2018-05-29T02:18:31.965Z,5.00
2018-05-29T02:21:05.304Z,4.17
2018-05-29T02:23:37.987Z,4.20
2018-05-29T02:26:11.513Z,3.87
2018-05-29T02:28:45.513Z,3.97
2018-05-29T02:31:18.247Z,4.43
2018-05-29T02:33:51.291Z,5.10
2018-05-29T02:36:24.819Z,3.90
2018-05-29T02:38:58.030Z,4.50
2018-05-29T02:41:30.585Z,4.03
2018-05-29T02:44:04.647Z,5.37
2018-05-29T02:46:37.373Z,3.83
2018-05-29T02:49:11.489Z,5.20
2018-05-29T02:51:44.380Z,5.30
2018-05-29T02:54:17.668Z,4.73
2018-05-29T02:56:50.351Z,4.70
2018-05-29T02:59:23.566Z,4.30
2018-05-29T03:01:56.017Z,4.20
2018-05-29T03:04:28.384Z,4.23
2018-05-29T03:07:01.187Z,4.20
2018-05-29T03:09:34.181Z,4.37
2018-05-29T03:12:07.670Z,4.30
2018-05-29T03:14:40.986Z,3.70
2018-05-29T03:17:13.550Z,4.80
2018-05-29T03:19:47.269Z,4.70
2018-05-29T03:22:20.395Z,4.30
2018-05-29T03:24:53.707Z,4.67
2018-05-29T03:27:26.211Z,4.43
2018-05-29T03:29:58.533Z,5.20
2018-05-29T03:32:31.921Z,4.00
2018-05-29T03:35:04.377Z,5.43
2018-05-29T03:37:36.739Z,4.97
2018-05-29T03:40:09.884Z,5.00
2018-05-29T03:42:42.508Z,5.00
2018-05-29T03:45:14.864Z,4.53
2018-05-29T03:47:48.874Z,4.03
2018-05-29T03:50:21.617Z,4.53
2018-05-29T03:52:55.056Z,4.30
2018-05-29T03:55:28.376Z,4.67
2018-05-29T03:58:01.662Z,4.53
2018-05-29T04:00:34.457Z,4.50
2018-05-29T04:03:06.978Z,4.70
2018-05-29T04:05:39.352Z,4.23
2018-05-29T04:08:11.978Z,4.90
2018-05-29T04:10:45.200Z,4.50
2018-05-29T04:13:17.741Z,4.00
2018-05-29T04:15:50.441Z,4.43
2018-05-29T04:18:23.755Z,4.83
2018-05-29T04:20:57.003Z,4.90
2018-05-29T04:23:29.366Z,4.83
2018-05-29T04:26:02.668Z,4.60
2018-05-29T04:28:36.070Z,4.43
2018-05-29T04:31:09.398Z,5.03
2018-05-29T04:33:42.777Z,4.60
2018-05-29T04:36:15.960Z,4.60
2018-05-29T04:38:49.150Z,5.67
2018-05-29T04:41:22.581Z,5.47
2018-05-29T04:43:55.431Z,4.23
2018-05-29T04:46:29.403Z,5.17
2018-05-29T04:49:02.335Z,4.47
2018-05-29T04:51:35.575Z,3.80
2018-05-29T04:54:08.923Z,5.47
2018-05-29T04:56:41.249Z,4.40
2018-05-29T04:59:15.524Z,4.53
2018-05-29T05:01:49.586Z,4.10
2018-05-29T05:04:22.799Z,4.60
2018-05-29T05:06:55.709Z,4.30
2018-05-29T05:09:28.137Z,5.40
2018-05-29T05:12:01.374Z,5.10
2018-05-29T05:14:34.074Z,5.30
2018-05-29T05:17:07.170Z,4.60
2018-05-29T05:19:40.633Z,4.40
2018-05-29T05:22:13.845Z,4.20
2018-05-29T05:24:48.014Z,5.17
2018-05-29T05:27:20.922Z,4.60
2018-05-29T05:29:54.381Z,4.30
2018-05-29T05:32:28.145Z,4.13
2018-05-29T05:35:01.409Z,4.00
2018-05-29T05:37:35.416Z,3.80
2018-05-29T05:40:08.867Z,4.20
2018-05-29T05:42:42.209Z,3.00
2018-05-29T05:45:14.848Z,3.30
2018-05-29T05:47:48.217Z,3.57
2018-05-29T05:50:20.611Z,3.57
2018-05-29T05:52:53.062Z,3.80
2018-05-29T05:55:25.557Z,3.93
2018-05-29T05:57:57.918Z,3.93
2018-05-29T06:00:31.218Z,3.10
2018-05-29T06:03:03.763Z,3.73
2018-05-29T06:05:36.569Z,3.50
2018-05-29T06:08:09.655Z,3.83
2018-05-29T06:10:43.068Z,3.80
2018-05-29T06:13:16.322Z,3.00
2018-05-29T06:15:48.729Z,3.50
2018-05-29T06:18:22.689Z,3.60
2018-05-29T06:20:56.405Z,3.43
2018-05-29T06:23:29.703Z,3.00
2018-05-29T06:26:02.475Z,3.87
2018-05-29T06:28:34.877Z,3.60
2018-05-29T06:31:08.499Z,3.77
2018-05-29T06:33:41.566Z,3.53
2018-05-29T06:36:13.928Z,4.87
2018-05-29T06:38:46.439Z,3.90
2018-05-29T06:41:19.810Z,3.13
2018-05-29T06:43:53.919Z,3.33
2018-05-29T06:46:26.590Z,3.70
2018-05-29T06:48:59.987Z,3.90
2018-05-29T06:51:34.239Z,3.30
2018-05-29T06:54:06.875Z,3.47
2018-05-29T06:56:40.302Z,3.40
2018-05-29T06:59:13.390Z,3.53
2018-05-29T07:01:46.805Z,3.00
2018-05-29T07:04:19.321Z,2.30
2018-05-29T07:06:51.816Z,3.60
2018-05-29T07:09:29.173Z,2.77
2018-05-29T07:12:02.571Z,2.93
2018-05-29T07:14:35.121Z,2.67
2018-05-29T07:17:07.501Z,3.87
2018-05-29T07:19:40.041Z,2.70
2018-05-29T07:22:13.325Z,3.00
2018-05-29T07:24:47.428Z,3.10
2018-05-29T07:27:20.326Z,3.50
2018-05-29T07:29:53.589Z,3.07
2018-05-29T07:32:26.857Z,2.90
2018-05-29T07:34:59.213Z,2.70
2018-05-29T07:37:31.836Z,3.47
2018-05-29T07:40:05.171Z,3.10
2018-05-29T07:42:38.518Z,2.90
2018-05-29T07:45:10.959Z,3.00
2018-05-29T07:47:43.783Z,3.30
2018-05-29T07:50:17.031Z,3.30
2018-05-29T07:52:50.567Z,2.80
2018-05-29T07:55:23.786Z,2.83
2018-05-29T07:57:57.357Z,3.70
2018-05-29T08:00:30.638Z,3.40
2018-05-29T08:03:03.992Z,3.67
2018-05-29T08:05:38.143Z,2.63
2018-05-29T08:08:10.950Z,2.90
2018-05-29T08:10:44.140Z,2.87
2018-05-29T08:13:17.749Z,3.93
2018-05-29T08:15:50.754Z,2.53
2018-05-29T08:18:24.233Z,3.90
2018-05-29T08:20:57.457Z,3.20
2018-05-29T08:23:30.584Z,2.97
2018-05-29T08:26:03.222Z,2.57
2018-05-29T08:28:35.605Z,3.73
2018-05-29T08:31:08.138Z,3.23
2018-05-29T08:33:40.671Z,3.60
2018-05-29T08:36:14.048Z,2.90
2018-05-29T08:38:48.382Z,2.87
2018-05-29T08:41:20.824Z,3.80
2018-05-29T08:43:54.807Z,3.20
2018-05-29T08:46:27.436Z,3.00
2018-05-29T08:49:00.763Z,3.10
2018-05-29T08:51:33.218Z,2.93
2018-05-29T08:54:07.490Z,3.10
2018-05-29T08:56:40.345Z,2.83
2018-05-29T08:59:14.318Z,3.10
2018-05-29T09:01:47.062Z,2.57
2018-05-29T09:04:19.564Z,3.37
2018-05-29T09:06:52.860Z,3.03
2018-05-29T09:09:25.681Z,2.50
2018-05-29T09:11:59.498Z,2.90
2018-05-29T09:14:32.175Z,2.30
2018-05-29T09:17:05.536Z,3.20
2018-05-29T09:19:38.743Z,3.00
2018-05-29T09:22:11.442Z,2.57
2018-05-29T09:24:45.037Z,2.90
2018-05-29T09:27:18.197Z,3.33
2018-05-29T09:29:51.601Z,3.30
2018-05-29T09:32:24.151Z,2.53
2018-05-29T09:34:56.861Z,3.27
2018-05-29T09:37:30.685Z,3.53
2018-05-29T09:40:03.528Z,3.50
2018-05-29T09:42:37.489Z,2.80
2018-05-29T09:45:10.328Z,3.50
2018-05-29T09:47:43.519Z,2.90
2018-05-29T09:50:17.131Z,3.80
2018-05-29T09:52:50.444Z,3.27
2018-05-29T09:55:24.039Z,3.50
2018-05-29T09:57:57.203Z,3.20
2018-05-29T10:00:37.317Z,3.63
2018-05-29T10:03:09.701Z,3.70
2018-05-29T10:05:42.209Z,4.37
2018-05-29T10:08:16.242Z,3.43
2018-05-29T10:10:49.711Z,4.20
2018-05-29T10:13:22.533Z,4.13
2018-05-29T10:15:54.927Z,3.60
2018-05-29T10:18:27.534Z,3.47
2018-05-29T10:21:00.870Z,3.43
2018-05-29T10:23:34.061Z,3.60
2018-05-29T10:26:06.613Z,3.57
2018-05-29T10:28:39.794Z,3.47
2018-05-29T10:31:12.388Z,3.53
2018-05-29T10:33:44.799Z,4.17
2018-05-29T10:36:17.339Z,4.40
2018-05-29T10:38:50.648Z,2.93
2018-05-29T10:41:23.328Z,4.07
2018-05-29T10:43:56.484Z,3.40
2018-05-29T10:46:29.874Z,3.00
2018-05-29T10:49:03.917Z,3.63
2018-05-29T10:51:36.631Z,3.93
2018-05-29T10:54:10.123Z,3.37
2018-05-29T10:56:43.476Z,3.80
2018-05-29T10:59:16.092Z,3.63
2018-05-29T11:01:48.698Z,3.00
2018-05-29T11:04:21.831Z,5.80
2018-05-29T11:06:55.980Z,6.70
2018-05-29T11:09:29.169Z,6.67
2018-05-29T11:12:02.627Z,5.83
2018-05-29T11:14:35.098Z,6.50
2018-05-29T11:17:07.515Z,7.90
2018-05-29T11:19:40.581Z,5.90
2018-05-29T11:22:14.116Z,7.47
2018-05-29T11:24:48.428Z,4.37
2018-05-29T11:27:21.274Z,5.13
2018-05-29T11:29:53.653Z,6.00
2018-05-29T11:32:28.066Z,4.37
2018-05-29T11:35:01.658Z,4.47
2018-05-29T11:37:35.987Z,3.63
2018-05-29T11:40:09.053Z,4.10
2018-05-29T11:42:42.528Z,4.40
2018-05-29T11:45:15.804Z,4.10
2018-05-29T11:47:49.064Z,4.20
2018-05-29T11:50:22.356Z,3.37
2018-05-29T11:52:56.095Z,4.43
2018-05-29T11:55:29.141Z,4.57
2018-05-29T11:58:02.807Z,3.27
2018-05-29T12:00:35.901Z,3.93
2018-05-29T12:03:09.676Z,3.30
2018-05-29T12:05:42.639Z,3.67
2018-05-29T12:08:15.792Z,4.10
2018-05-29T12:10:48.439Z,4.67
2018-05-29T12:13:20.860Z,4.50
2018-05-29T12:15:54.269Z,4.00
2018-05-29T12:18:27.721Z,4.90
2018-05-29T12:21:00.859Z,4.23
2018-05-29T12:23:34.235Z,3.40
2018-05-29T12:26:06.592Z,4.40
2018-05-29T12:28:39.179Z,4.43
2018-05-29T12:31:12.481Z,4.30
2018-05-29T12:33:44.938Z,4.17
2018-05-29T12:36:17.343Z,3.03
2018-05-29T12:38:49.886Z,4.20
2018-05-29T12:41:23.328Z,4.37
2018-05-29T12:43:55.712Z,3.87
2018-05-29T12:46:28.147Z,4.17
2018-05-29T12:49:01.372Z,3.63
2018-05-29T12:51:35.405Z,3.93
2018-05-29T12:54:07.973Z,3.50
2018-05-29T12:56:40.460Z,4.13
2018-05-29T12:59:13.774Z,3.50
2018-05-29T13:01:47.077Z,3.60
2018-05-29T13:04:20.072Z,3.93
2018-05-29T13:06:54.294Z,3.40
2018-05-29T13:09:27.573Z,3.70
2018-05-29T13:12:00.821Z,3.30
2018-05-29T13:14:33.226Z,4.00
2018-05-29T13:17:06.711Z,4.03
2018-05-29T13:19:40.800Z,3.87
2018-05-29T13:22:14.153Z,3.80
2018-05-29T13:24:48.429Z,3.27
2018-05-29T13:27:21.792Z,3.17
2018-05-29T13:29:56.116Z,3.40
2018-05-29T13:32:29.554Z,3.23
2018-05-29T13:35:03.142Z,3.30
2018-05-29T13:37:36.316Z,2.93
2018-05-29T13:40:09.619Z,3.07
2018-05-29T13:42:43.027Z,3.73
2018-05-29T13:45:15.680Z,3.00
2018-05-29T13:47:49.729Z,3.17
2018-05-29T13:50:22.172Z,3.17
2018-05-29T13:52:54.505Z,3.17
2018-05-29T13:55:28.068Z,3.10
2018-05-29T13:58:01.149Z,2.67
2018-05-29T14:00:35.204Z,3.10
2018-05-29T14:03:08.711Z,3.40
2018-05-29T14:05:41.381Z,3.90
2018-05-29T14:08:14.614Z,3.50
2018-05-29T14:10:47.199Z,2.90
2018-05-29T14:13:21.581Z,3.23
2018-05-29T14:15:54.638Z,3.40
2018-05-29T14:18:27.818Z,4.43
2018-05-29T14:21:00.205Z,3.93
2018-05-29T14:23:33.475Z,3.80
2018-05-29T14:26:06.899Z,2.70
2018-05-29T14:28:40.313Z,3.47
2018-05-29T14:31:13.736Z,3.50
2018-05-29T14:33:47.068Z,4.70
2018-05-29T14:36:21.252Z,3.60
2018-05-29T14:38:54.513Z,3.90
2018-05-29T14:41:28.081Z,3.97
2018-05-29T14:44:00.566Z,3.97
2018-05-29T14:46:34.758Z,3.67
2018-05-29T14:49:07.185Z,4.10
2018-05-29T14:51:40.480Z,3.53
2018-05-29T14:54:13.867Z,6.03
2018-05-29T14:56:48.549Z,8.60
2018-05-29T14:59:22.222Z,7.47
2018-05-29T15:01:54.761Z,4.43
2018-05-29T15:04:28.841Z,4.03
2018-05-29T15:07:01.636Z,4.00
2018-05-29T15:09:34.714Z,3.50
2018-05-29T15:12:07.708Z,3.20
2018-05-29T15:14:40.496Z,3.40
2018-05-29T15:17:13.879Z,3.57
2018-05-29T15:19:47.022Z,3.43
2018-05-29T15:22:19.456Z,3.93
2018-05-29T15:24:51.857Z,3.87
2018-05-29T15:27:25.368Z,3.30
2018-05-29T15:29:58.568Z,3.43
2018-05-29T15:32:32.040Z,4.30
2018-05-29T15:35:06.268Z,3.90
2018-05-29T15:37:38.671Z,3.57
2018-05-29T15:40:11.758Z,4.27
2018-05-29T15:42:44.687Z,5.53
2018-05-29T15:45:17.797Z,5.13
2018-05-29T15:47:51.090Z,4.80
2018-05-29T15:50:23.588Z,4.60
2018-05-29T15:52:56.844Z,4.20
2018-05-29T15:55:29.477Z,4.10
2018-05-29T15:58:01.847Z,4.77
2018-05-29T16:00:35.220Z,4.37
2018-05-29T16:03:09.526Z,4.47
2018-05-29T16:05:42.032Z,3.80
2018-05-29T16:08:16.668Z,3.43
2018-05-29T16:10:49.723Z,5.47
2018-05-29T16:13:22.877Z,3.80
2018-05-29T16:15:55.543Z,3.90
2018-05-29T16:18:29.089Z,3.60
2018-05-29T16:21:02.251Z,3.37
2018-05-29T16:23:36.482Z,3.93
2018-05-29T16:26:08.840Z,4.57
2018-05-29T16:28:42.128Z,3.90
2018-05-29T16:31:15.483Z,5.73
2018-05-29T16:33:49.246Z,4.47
2018-05-29T16:36:22.311Z,4.10
2018-05-29T16:38:56.762Z,3.40
2018-05-29T16:41:29.269Z,3.47
2018-05-29T16:44:02.022Z,3.43
2018-05-29T16:46:35.128Z,3.50
2018-05-29T16:49:09.449Z,3.90
2018-05-29T16:51:41.913Z,5.23
2018-05-29T16:54:14.428Z,4.50
2018-05-29T16:56:46.764Z,4.10
2018-05-29T16:59:19.443Z,3.90
2018-05-29T17:01:52.513Z,4.67
2018-05-29T17:04:24.981Z,3.93
2018-05-29T17:06:59.131Z,4.20
2018-05-29T17:09:32.556Z,3.73
2018-05-29T17:12:05.139Z,4.70
2018-05-29T17:14:37.656Z,3.60
2018-05-29T17:17:10.140Z,2.90
2018-05-29T17:19:44.398Z,4.27
2018-05-29T17:22:16.872Z,3.93
2018-05-29T17:24:49.280Z,4.00
2018-05-29T17:27:22.477Z,3.60
2018-05-29T17:29:55.144Z,3.50
2018-05-29T17:32:28.478Z,4.00
2018-05-29T17:35:01.843Z,2.83
2018-05-29T17:37:35.881Z,3.70
2018-05-29T17:40:08.676Z,3.67
2018-05-29T17:42:42.538Z,3.67
2018-05-29T17:45:15.275Z,3.80
2018-05-29T17:47:50.315Z,3.60
2018-05-29T17:50:24.462Z,3.50
2018-05-29T17:52:58.218Z,3.40
2018-05-29T17:55:30.883Z,3.87
2018-05-29T17:58:04.247Z,3.70
2018-05-29T18:00:37.755Z,4.13
2018-05-29T18:03:11.693Z,4.47
2018-05-29T18:05:44.400Z,4.70
2018-05-29T18:08:16.892Z,4.60
2018-05-29T18:10:50.380Z,5.30
2018-05-29T18:13:23.619Z,4.50
2018-05-29T18:15:57.060Z,5.27
2018-05-29T18:18:31.035Z,4.87
2018-05-29T18:21:03.572Z,4.07
2018-05-29T18:23:36.939Z,4.50
2018-05-29T18:26:10.335Z,4.60
2018-05-29T18:28:42.693Z,4.57
2018-05-29T18:31:16.781Z,4.57
2018-05-29T18:33:49.430Z,4.90
2018-05-29T18:36:21.910Z,4.47
2018-05-29T18:38:55.290Z,5.23
2018-05-29T18:41:28.567Z,4.17
2018-05-29T18:44:01.881Z,5.17
2018-05-29T18:46:34.340Z,5.20
2018-05-29T18:49:06.848Z,4.43
2018-05-29T18:51:40.161Z,6.33
2018-05-29T18:54:12.566Z,5.30
2018-05-29T18:56:45.690Z,4.53
2018-05-29T18:59:19.300Z,5.00
2018-05-29T19:01:51.744Z,4.73
2018-05-29T19:04:24.942Z,4.30
2018-05-29T19:06:58.435Z,5.70
2018-05-29T19:09:31.731Z,5.60
2018-05-29T19:12:04.826Z,4.57
2018-05-29T19:14:38.031Z,4.60
2018-05-29T19:17:10.683Z,4.63
2018-05-29T19:19:43.673Z,5.10
2018-05-29T19:22:16.870Z,4.60
2018-05-29T19:24:50.061Z,4.33
2018-05-29T19:27:22.736Z,4.43
2018-05-29T19:29:56.463Z,4.90
2018-05-29T19:32:29.496Z,5.10
2018-05-29T19:35:02.910Z,4.23
2018-05-29T19:37:36.981Z,4.23
2018-05-29T19:40:11.339Z,4.63
2018-05-29T19:42:44.820Z,4.57
2018-05-29T19:45:18.186Z,4.90
2018-05-29T19:47:51.534Z,5.13
2018-05-29T19:50:25.646Z,4.43
2018-05-29T19:52:58.488Z,4.57
2018-05-29T19:55:31.474Z,4.10
2018-05-29T19:58:03.984Z,4.87
2018-05-29T20:00:37.962Z,6.10
2018-05-29T20:03:10.511Z,4.90
2018-05-29T20:05:44.704Z,5.23
2018-05-29T20:08:17.734Z,5.53
2018-05-29T20:10:51.357Z,5.83
2018-05-29T20:13:24.630Z,5.10
2018-05-29T20:15:58.231Z,4.60
2018-05-29T20:18:31.605Z,5.30
2018-05-29T20:21:05.438Z,5.57
2018-05-29T20:23:38.010Z,4.67
2018-05-29T20:26:11.410Z,5.07
2018-05-29T20:28:43.920Z,4.60
2018-05-29T20:31:17.980Z,4.67
2018-05-29T20:33:50.649Z,4.83
2018-05-29T20:36:24.018Z,5.23
2018-05-29T20:38:56.524Z,5.30
2018-05-29T20:41:29.823Z,4.77
2018-05-29T20:44:03.872Z,4.97
2018-05-29T20:46:36.487Z,6.07
2018-05-29T20:49:09.878Z,5.50
2018-05-29T20:51:43.354Z,4.50
2018-05-29T20:54:17.317Z,4.77
2018-05-29T20:56:49.906Z,5.13
2018-05-29T20:59:23.203Z,4.83
2018-05-29T21:01:56.462Z,5.23
2018-05-29T21:04:29.872Z,6.13
2018-05-29T21:07:03.092Z,5.47
2018-05-29T21:09:36.429Z,6.40
2018-05-29T21:12:09.693Z,5.17
2018-05-29T21:14:42.981Z,6.53
2018-05-29T21:17:16.135Z,6.37
2018-05-29T21:19:49.363Z,5.73
2018-05-29T21:22:22.575Z,6.40
2018-05-29T21:24:55.015Z,5.97
2018-05-29T21:27:28.505Z,6.57
2018-05-29T21:30:01.654Z,7.10
2018-05-29T21:32:34.969Z,8.17
2018-05-29T21:35:08.998Z,8.83
2018-05-29T21:37:41.516Z,7.87
2018-05-29T21:40:15.803Z,10.97
2018-05-29T21:42:48.169Z,9.57
2018-05-29T21:45:22.233Z,11.00
2018-05-29T21:47:54.821Z,12.90
2018-05-29T21:50:27.260Z,11.63
2018-05-29T21:53:01.290Z,10.10
2018-05-29T21:55:34.490Z,12.30
2018-05-29T21:58:07.850Z,11.33
2018-05-29T22:00:40.317Z,11.60
2018-05-29T22:03:12.797Z,9.87
2018-05-29T22:05:46.150Z,10.00
2018-05-29T22:08:19.487Z,12.60
2018-05-29T22:10:51.864Z,10.93
2018-05-29T22:13:24.349Z,9.13
2018-05-29T22:15:58.478Z,9.77
2018-05-29T22:18:31.012Z,10.90
2018-05-29T22:21:04.380Z,9.37
2018-05-29T22:23:37.707Z,8.67
2018-05-29T22:26:10.981Z,7.10
2018-05-29T22:28:44.141Z,8.17
2018-05-29T22:31:17.665Z,8.90
2018-05-29T22:33:51.022Z,13.97
2018-05-29T22:36:23.558Z,8.83
2018-05-29T22:38:56.635Z,9.70
2018-05-29T22:41:29.953Z,9.80
2018-05-29T22:44:03.361Z,9.40
2018-05-29T22:46:36.626Z,7.70
2018-05-29T22:49:09.247Z,8.83
2018-05-29T22:51:42.550Z,9.03
2018-05-29T22:54:15.753Z,8.70
2018-05-29T22:56:49.053Z,8.90
2018-05-29T22:59:21.460Z,9.23
2018-05-29T23:01:55.550Z,10.13
2018-05-29T23:04:28.119Z,10.23
2018-05-29T23:07:00.459Z,11.70
2018-05-29T23:09:33.734Z,11.10
2018-05-29T23:12:07.085Z,12.50
2018-05-29T23:14:40.180Z,12.77
2018-05-29T23:17:13.399Z,12.33
2018-05-29T23:19:46.749Z,10.80
2018-05-29T23:22:19.292Z,11.27
2018-05-29T23:24:51.777Z,11.13
2018-05-29T23:27:25.116Z,11.03
2018-05-29T23:29:57.970Z,10.13
2018-05-29T23:32:30.447Z,8.87
2018-05-29T23:35:03.677Z,8.80
2018-05-29T23:37:36.403Z,9.40
2018-05-29T23:40:10.496Z,6.73
2018-05-29T23:42:43.351Z,7.37
2018-05-29T23:45:16.767Z,7.13
2018-05-29T23:47:49.146Z,6.83
2018-05-29T23:50:22.557Z,6.90
2018-05-29T23:52:55.972Z,6.50
2018-05-29T23:55:28.381Z,6.27
2018-05-29T23:58:00.783Z,4.50
